Skip Navigation Links Skip Navigation Links

Current Weather

Gnoss Field, Novato, Calif.

For information only: do not use for flight planning or navigation.
Latest weather
Observation time Thursday, December 3, 2020 11:35 PM PST
Local time Friday, December 4, 2020 12:00 AM PST
Flight conditions Visual Meteorological Conditions
Winds
Wind speed calm
Visibility 8 mi.
Sky condition
Ceiling unlimited
Sky clear
Temperature 43°F
Dewpoint 39°F
Altimeter 30.32 in.Hg
Derived measurements
Relative humidity 87%
Wind chill 43°F
Density altitude -1421 ft.
Remarks
Fully automated report.
Automated weather observing station with precipitation discriminator.
METAR KDVO 040735Z AUTO 00000KT 8SM CLR 06/04 A3032 RMK AO2

Settings

Location code

InnerDrive.Weather 4.0.6770.0 Release CLR 4.0.30319.42000
Copyright ©2018 Inner Drive Technology. All rights reserved. Portions Copyright ©1986-2018 David Braverman.

Find weather

Site navigation


Skip Navigation Links

Place info

Page info

PayPal - The safer, easier way to pay online!

Return home.

Copyright ©2020 Inner Drive Technology. Purveyors of fine, hand-crafted computer software. Page printed 2020-12-04T08:00:33 UTC.